ADDS TAF Board (Experimental) INFO Settings
IDs: Format: Expanded Condensed

KPHX - Phoenix/Sky Harbor, AZ, US

Issued at 0105 UTC 03 Sep 2015
Updated at: 0226 UTC 03 Sep 2015
Time0151Z 03/03Z 03/04Z 03/05Z 03/06Z 03/07Z 03/08Z 03/09Z 03/10Z 03/11Z 03/12Z 03/13Z 03/14Z 03/15Z
Type OBS PRVL PRVL
  [TEMP]  
PRVL
  [TEMP]  
PRVL
  [TEMP]  
PRVL PRVL PRVL PRVL PRVL PRVL PRVL PRVL PRVL
VIS 10 >6 >6 >6 >6 >6 >6 >6 >6 >6 >6 >6 >6 >6
CIG 250 220 220
  [220]  
220
  [220]  
220
  [220]  
150 150 250 250 250 250 250 -- --
Cover BKN BKN BKN
  [BKN]  
BKN
  [BKN]  
BKN
  [BKN]  
OVC OVC BKN BKN BKN BKN BKN SCT SCT
FltCat VFR VFR VFR
  [VFR]  
VFR
  [VFR]  
VFR
  [VFR]  
VFR VFR VFR VFR VFR VFR VFR VFR VFR
WX -- -- --
  [--]  
--
  [--]  
--
  [--]  
-- -- VCSH VCSH VCSH VCSH VCSH -- --
WDir 50 60 60
[200]
60
[200]
60
[200]
140 140 100 100 100 100 100 120 120
WSpd 8 8 8
  [7]  
8
  [7]  
8
  [7]  
8 8 6 6 6 6 6 7 7
WGst -- -- --
  [--]  
--
  [--]  
--
  [--]  
-- -- -- -- -- -- -- -- --
R07/25
XWnd 5 4 4 4 4 -6 -6 -1 -1 -1 -1 -1 -3 -3
XGst -- -- 0 0 0 -- -- -- -- -- -- -- -- --
HWnd 6 7 7 7 7 5 5 6 6 6 6 6 6 6
HGst -- -- 0 0 0 -- -- -- -- -- -- -- -- --
R08/26
XWnd 5 4 4 4 4 -6 -6 -1 -1 -1 -1 -1 -3 -3
XGst -- -- 0 0 0 -- -- -- -- -- -- -- -- --
HWnd 6 7 7 7 7 5 5 6 6 6 6 6 6 6
HGst -- -- 0 0 0 -- -- -- -- -- -- -- -- --

NOTE: TEMPO conditions in [brackets]. Keep in mind TEMPO conditions might be better (lower impact) than prevailing conditions.

Raw TAF
KPHX 030105Z 0301/0324 06008KT P6SM FEW100 FEW140 BKN220
  TEMPO 0304/0307 20007KT
  FM030700 14008KT P6SM FEW100 BKN150 OVC250
  FM030900 10006KT P6SM VCSH SCT120 BKN250
  FM031400 12007KT P6SM FEW120 SCT250
  FM032300 20007KT P6SM VCTS SCT100CB BKN200


Raw METAR
KPHX 030151Z 05008KT 10SM FEW090 SCT130 BKN250 37/09 A2979 RMK AO2 SLP067 T03670094
KPHX 030051Z 03011G23KT 10SM FEW090 SCT130 BKN210 BKN250 37/09 A2979 RMK AO2 SLP067 T03720094
KPHX 022351Z 01010KT 10SM FEW100 FEW140 BKN210 BKN250 38/09 A2980 RMK AO2 SLP069 T03780094 10383 20328 56021

METAR Board
Radar Display
Forecast Discussion

TAF Board Legend

Potential Impact
Threat None Slight Moderate High
Visibility (sm) ≥5.1 5.1>X≥3 3>X≥1 <1
Ceiling (100 ft) ≥30.1 30.1>X≥10 10>X≥5 <5
Wind Speed (kt) <10 10≤X<20 20≤X<30 ≥30
Wind Gust (kt) <15 15≤X<25 25≤X<35 ≥35
Weather No Wx Reported VCTS,-TS,-FZRA,SN TS,FZRA +TS,+FZRA,+SN